Fresno, CA

10:33 AM PST on March 06, 2015 (GMT -0800)
Sierra Sky Park | Change Station
CLOSE
Current Station
Personal Weather Station
Location: Fresno, CA
Elevation: 341 ft
Nearby Weather Stations

Elev 341 ft 36.84 °N, 119.87 °W | Updated 14 minutes ago

Clear
Clear
63.0 °F
Feels Like 63.0 °F
N
2.7
Wind Variable Wind from West

Today
High -- | Low -- °F
--% Chance of Precip.
Yesterday
High -- | Low -- °F
Precip. -- in
6:23 AM 5:58 PM
Full, 99% visible
Pressure 30.30 in
Visibility 10.0 miles
Clouds Clear
Dew Point 44 °F
Humidity 51%
Rainfall in
Snow Depth Not available.
UV 4 out of 12
Pollen 8.20 out of 12
Air Quality Not available.
Flu Activity Not available.
METAR KFAT 061753Z 00000KT 10SM CLR 14/06 A3030 RMK AO2 SLP261 T01440056 10144 20061 50004

More Conditions Fewer Conditions

Pressure 30.30 in
Visibility 10.0 miles
Clouds Clear
Dew Point 44 °F
Humidity 51%
Rainfall in
Snow Depth Not available.
UV 4 out of 12
Pollen 8.20 out of 12
Air Quality Not available.
Flu Activity Not available.
METAR KFAT 061753Z 00000KT 10SM CLR 14/06 A3030 RMK AO2 SLP261 T01440056 10144 20061 50004

More Conditions Fewer Conditions

10-Day Weather Forecast

Almanac

Astronomy

Mar. 06, 2015 Rise Set
Actual Time
Civil Twilight
Nautical Twilight
Astronomical Twilight
Moon
Length of Visible Light
Length of Day
Tomorrow will be .
, % of the Moon is Illuminated

Today's Extremes

State Highs State Lows

Community

WunderPhotos

Upload Photos

1,803,367 photos uploaded!

WunderBlogs® & News

Nearby

Air Quality

  Air Quality AQ Index Pollutant
Not available.

Snow Depth

Station Depth Elevation

Earthquake Activity

City Distance Mag. Time & Date
Minimum magnitude displayed is 2.5.

Coastal Water Temperatures

Place Temperature

Nearby Weather Stations